Crandalls Lodge, Iowa
Current Conditions -  °F | °C
As of 8:54 PM on Sunday 23 Nov 2014 (Local Time) from KMJQ Reporting Station
Overcast Overcast  
Wind Chill: 22°   Ceiling: 3000
Heat Index: 34°   Visibility: 10mi
Dew Point: 27°   Wind: 20mph
Humidity: 75%   Direction: 310°NW
Pressure: 29.45"   Gusts: 28mph
Location:  43.4265°N, 95.1547°W
Report Text: KMJQ 240254Z AUTO 31017G24KT 10SM SCT022 OVC030 01/M03 A2945 RMK AO2
Loading
Personal Weather Stations






























Interactive Weather Map New forecast layout! Learn more

10-Day Weather Forecast

Advertisements
Track Severe Weather on mobile